Time;durP1;ratioP1;P1;durP2;ratioP2;P2;SDS_P1;SDS_P2;PMS_P1;PMS_P2;Temp;Humidity;BMP_temperature;BMP_pressure;BME280_temperature;BME280_humidity;BME280_pressure;Samples;Min_cycle;Max_cycle;Signal;HPM_P1;HPM_P2
2021/10/20 00:00:48;;;;;;;1999.90;999.90;;;;;;;10.87;55.32;100876.31;5046605;27;98458;-71
2021/10/20 00:03:16;;;;;;;1999.90;999.90;;;;;;;10.86;55.23;100874.53;5048062;27;97490;-72
2021/10/20 00:05:44;;;;;;;1999.90;999.90;;;;;;;10.85;55.26;100873.63;5065916;27;96922;-72
2021/10/20 00:08:12;;;;;;;1999.90;999.90;;;;;;;10.84;55.21;100871.84;5064696;27;98064;-70
2021/10/20 00:10:40;;;;;;;1999.90;999.90;;;;;;;10.83;55.47;100864.69;5063774;27;98306;-70
2021/10/20 00:13:09;;;;;;;1999.90;999.90;;;;;;;10.81;55.31;100861.09;5069153;27;97018;-69
2021/10/20 00:15:37;;;;;;;1999.90;999.90;;;;;;;10.79;55.30;100853.97;5064872;27;97137;-73
2021/10/20 00:18:04;;;;;;;1999.90;999.90;;;;;;;10.79;55.32;100841.56;5062942;27;99353;-71
2021/10/20 00:20:32;;;;;;;1999.90;999.90;;;;;;;10.79;55.29;100840.66;5062698;27;99646;-72
2021/10/20 00:23:00;;;;;;;1999.90;999.90;;;;;;;10.78;55.31;100838.84;5064374;27;97009;-72
2021/10/20 00:25:29;;;;;;;1999.90;999.90;;;;;;;10.79;55.41;100835.34;5067292;27;98068;-70
2021/10/20 00:27:57;;;;;;;1999.90;999.90;;;;;;;10.77;55.47;100837.06;5063850;27;98858;-71
2021/10/20 00:30:27;;;;;;;1999.90;999.90;;;;;;;10.78;55.45;100838.84;5065267;27;97969;-70
2021/10/20 00:32:55;;;;;;;1999.90;999.90;;;;;;;10.78;55.35;100828.19;5050281;27;97340;-73
2021/10/20 00:35:23;;;;;;;1999.90;999.90;;;;;;;10.78;55.33;100828.19;5048155;27;97618;-70
2021/10/20 00:37:51;;;;;;;1999.90;999.90;;;;;;;10.79;55.40;100824.69;5067715;27;98978;-71
2021/10/20 00:40:19;;;;;;;1999.90;999.90;;;;;;;10.81;55.38;100821.16;5062672;27;99240;-71
2021/10/20 00:42:47;;;;;;;1999.90;999.90;;;;;;;10.82;55.59;100822.09;5063928;27;97212;-71
2021/10/20 00:45:15;;;;;;;1999.90;999.90;;;;;;;10.83;55.29;100821.22;5062971;27;97176;-71
2021/10/20 00:47:44;;;;;;;1999.90;999.90;;;;;;;10.84;55.37;100818.59;5065507;27;97641;-71
2021/10/20 00:50:13;;;;;;;1999.90;999.90;;;;;;;10.85;55.30;100809.72;5065098;27;99105;-70
2021/10/20 00:52:42;;;;;;;1999.90;999.90;;;;;;;10.85;55.44;100811.53;5062659;27;98887;-70
2021/10/20 00:55:11;;;;;;;1999.90;999.90;;;;;;;10.87;55.19;100807.09;5065203;27;97522;-70
2021/10/20 00:57:40;;;;;;;1999.90;999.90;;;;;;;10.90;55.42;100804.50;5042504;27;101005;-71
2021/10/20 01:00:11;;;;;;;1999.90;999.90;;;;;;;10.91;55.27;100804.53;5068985;27;97596;-70
2021/10/20 01:02:40;;;;;;;1999.90;999.90;;;;;;;10.91;55.24;100796.56;5063959;27;98096;-71
2021/10/20 01:05:11;;;;;;;1999.90;999.90;;;;;;;10.90;55.34;100796.53;5063665;27;97584;-70
2021/10/20 01:07:42;;;;;;;1999.90;999.90;;;;;;;10.87;55.31;100793.78;5066020;27;100624;-73
2021/10/20 01:10:11;;;;;;;1999.90;999.90;;;;;;;10.86;55.38;100784.00;5064477;27;100319;-72
2021/10/20 01:12:41;;;;;;;1999.90;999.90;;;;;;;10.85;55.44;100787.56;5083960;27;97418;-71
2021/10/20 01:15:12;;;;;;;1999.90;999.90;;;;;;;10.84;55.42;100783.09;5069220;27;98002;-71
2021/10/20 01:17:41;;;;;;;1999.90;999.90;;;;;;;10.82;55.46;100772.41;5064744;27;99280;-70
2021/10/20 01:20:11;;;;;;;1999.90;999.90;;;;;;;10.83;55.42;100768.00;5065596;27;97570;-70
2021/10/20 01:22:41;;;;;;;1999.90;999.90;;;;;;;10.81;55.38;100759.06;5061682;27;97109;-72
2021/10/20 01:25:10;;;;;;;1999.90;999.90;;;;;;;10.82;55.51;100763.50;5067027;27;96954;-71
2021/10/20 01:27:38;;;;;;;1999.90;999.90;;;;;;;10.82;55.36;100759.09;5064106;27;99015;-71
2021/10/20 01:30:07;;;;;;;1999.90;999.90;;;;;;;10.83;55.43;100749.34;5046827;27;99466;-72
2021/10/20 01:32:35;;;;;;;1999.90;999.90;;;;;;;10.82;55.52;100751.13;5064390;27;96987;-71
2021/10/20 01:35:04;;;;;;;1999.90;999.90;;;;;;;10.83;55.26;100746.69;5064567;27;97569;-71
2021/10/20 01:37:32;;;;;;;1999.90;999.90;;;;;;;10.81;55.32;100737.78;5063937;27;99605;-71
2021/10/20 01:40:01;;;;;;;1999.90;999.90;;;;;;;10.80;55.24;100735.97;5064304;27;99247;-71
2021/10/20 01:42:29;;;;;;;1999.90;999.90;;;;;;;10.78;55.52;100729.72;5064112;27;97346;-71
2021/10/20 01:44:57;;;;;;;1999.90;999.90;;;;;;;10.77;55.64;100731.50;5062908;27;97255;-70
2021/10/20 01:47:25;;;;;;;1999.90;999.90;;;;;;;10.77;55.43;100727.94;5063850;27;96747;-71
2021/10/20 01:49:54;;;;;;;1999.90;999.90;;;;;;;10.77;55.34;100722.63;5046575;27;99470;-70
2021/10/20 01:52:22;;;;;;;1999.90;999.90;;;;;;;10.77;55.38;100722.63;5065503;27;98143;-71
2021/10/20 01:54:50;;;;;;;1999.90;999.90;;;;;;;10.75;55.41;100716.34;5062079;27;97454;-71
2021/10/20 01:57:19;;;;;;;1999.90;999.90;;;;;;;10.73;55.40;100710.09;5063151;27;99210;-71
2021/10/20 01:59:47;;;;;;;1999.90;999.90;;;;;;;10.71;55.39;100703.84;5059528;27;99860;-70
2021/10/20 02:02:16;;;;;;;1999.90;999.90;;;;;;;10.71;55.58;100706.50;5043539;27;97025;-70
2021/10/20 02:04:44;;;;;;;1999.90;999.90;;;;;;;10.71;55.48;100703.84;5058161;27;97322;-71
2021/10/20 02:07:12;;;;;;;1999.90;999.90;;;;;;;10.71;55.37;100703.84;5061902;27;98119;-71
2021/10/20 02:09:40;;;;;;;1999.90;999.90;;;;;;;10.69;55.20;100694.94;5045423;27;99396;-70
2021/10/20 02:12:09;;;;;;;1999.90;999.90;;;;;;;10.66;55.39;100682.50;5046982;27;96953;-70
2021/10/20 02:14:38;;;;;;;1999.90;999.90;;;;;;;10.68;55.33;100682.50;5062729;27;96890;-70
2021/10/20 02:17:06;;;;;;;1999.90;999.90;;;;;;;10.68;55.16;100677.19;5044422;27;99202;-70
2021/10/20 02:19:34;;;;;;;1999.90;999.90;;;;;;;10.66;55.40;100681.59;5063489;27;99289;-73
2021/10/20 02:22:04;;;;;;;1999.90;999.90;;;;;;;10.66;55.46;100682.50;5063943;27;97322;-70
2021/10/20 02:24:32;;;;;;;1999.90;999.90;;;;;;;10.65;55.49;100674.47;5060608;27;97926;-71
2021/10/20 02:26:59;;;;;;;1999.90;999.90;;;;;;;10.64;55.39;100672.69;5046350;27;99358;-71
2021/10/20 02:29:27;;;;;;;1999.90;999.90;;;;;;;10.64;55.32;100670.00;5045405;27;99221;-71
2021/10/20 02:31:56;;;;;;;1999.90;999.90;;;;;;;10.65;55.32;100680.69;5062034;27;97325;-71
2021/10/20 02:34:25;;;;;;;1999.90;999.90;;;;;;;10.64;55.33;100678.00;5062954;27;96831;-71
2021/10/20 02:36:52;;;;;;;1999.90;999.90;;;;;;;10.67;55.20;100683.38;5064562;27;97953;-70
2021/10/20 02:39:20;;;;;;;1999.90;999.90;;;;;;;10.66;55.32;100673.59;5063974;27;100431;-71
2021/10/20 02:41:48;;;;;;;1999.90;999.90;;;;;;;10.69;55.24;100668.31;5060088;27;97184;-70
2021/10/20 02:44:16;;;;;;;1999.90;999.90;;;;;;;10.66;55.10;100661.19;5063140;27;97017;-71
2021/10/20 02:46:44;;;;;;;1999.90;999.90;;;;;;;10.65;55.11;100663.84;5045208;27;99972;-71
2021/10/20 02:49:13;;;;;;;1999.90;999.90;;;;;;;10.64;55.04;100662.94;5060329;27;99246;-70
2021/10/20 02:51:41;;;;;;;1999.90;999.90;;;;;;;10.65;55.33;100662.06;5060100;27;97379;-71
2021/10/20 02:54:09;;;;;;;1999.90;999.90;;;;;;;10.66;54.91;100661.19;5060729;27;97099;-71
2021/10/20 02:56:37;;;;;;;1999.90;999.90;;;;;;;10.64;55.09;100643.41;5057682;27;99424;-71
2021/10/20 02:59:04;;;;;;;1999.90;999.90;;;;;;;10.63;55.19;100647.81;5060081;27;100422;-71
2021/10/20 03:01:32;;;;;;;1999.90;999.90;;;;;;;10.63;55.07;100649.59;5061665;27;98466;-71
2021/10/20 03:04:00;;;;;;;1999.90;999.90;;;;;;;10.64;55.07;100638.97;5062352;27;96721;-71
2021/10/20 03:06:30;;;;;;;1999.90;999.90;;;;;;;10.65;55.11;100637.22;5062747;27;97875;-72
2021/10/20 03:08:58;;;;;;;1999.90;999.90;;;;;;;10.67;54.96;100635.47;5062610;27;99335;-71
2021/10/20 03:11:25;;;;;;;1999.90;999.90;;;;;;;10.69;54.97;100628.41;5060960;27;97564;-71
2021/10/20 03:13:54;;;;;;;1999.90;999.90;;;;;;;10.72;55.05;100620.50;5046478;27;98086;-71
2021/10/20 03:16:22;;;;;;;1999.90;999.90;;;;;;;10.74;54.69;100621.44;5061723;27;98508;-71
2021/10/20 03:18:50;;;;;;;1999.90;999.90;;;;;;;10.76;54.87;100614.34;5059129;27;98949;-71
2021/10/20 03:21:18;;;;;;;1999.90;999.90;;;;;;;10.79;54.57;100611.75;5062999;27;96900;-71
2021/10/20 03:23:47;;;;;;;1999.90;999.90;;;;;;;10.79;54.57;100610.00;5059826;27;97356;-71
2021/10/20 03:26:14;;;;;;;1999.90;999.90;;;;;;;10.79;54.40;100614.41;5042006;27;99458;-71
2021/10/20 03:28:42;;;;;;;1999.90;999.90;;;;;;;10.82;54.38;100617.13;5061976;27;97711;-71
2021/10/20 03:31:10;;;;;;;1999.90;999.90;;;;;;;10.81;54.26;100610.88;5061427;27;96969;-71
2021/10/20 03:33:38;;;;;;;1999.90;999.90;;;;;;;10.79;54.33;100606.44;5062135;27;96855;-71
2021/10/20 03:36:07;;;;;;;1999.90;999.90;;;;;;;10.80;54.31;100613.53;5062645;27;101183;-72
2021/10/20 03:38:35;;;;;;;1999.90;999.90;;;;;;;10.77;54.44;100608.16;5059399;27;99211;-72
2021/10/20 03:41:04;;;;;;;1999.90;999.90;;;;;;;10.75;54.46;100609.91;5064816;27;97078;-70
2021/10/20 03:43:38;;;;;;;1999.90;999.90;;;;;;;10.72;54.44;100609.84;5061781;27;96958;-71
2021/10/20 03:46:06;;;;;;;1999.90;999.90;;;;;;;10.71;54.22;100603.63;5062339;27;97591;-71
2021/10/20 03:48:34;;;;;;;1999.90;999.90;;;;;;;10.67;54.46;100601.78;5062929;27;99471;-71
2021/10/20 03:51:02;;;;;;;1999.90;999.90;;;;;;;10.67;54.73;100596.44;5062428;27;97660;-70
2021/10/20 03:53:30;;;;;;;1999.90;999.90;;;;;;;10.69;54.42;100594.72;5056611;27;97516;-71
2021/10/20 03:55:57;;;;;;;1999.90;999.90;;;;;;;10.67;54.43;100590.22;5045052;27;99269;-71
2021/10/20 03:58:27;;;;;;;1999.90;999.90;;;;;;;10.69;54.43;100589.41;5063110;27;97603;-71
2021/10/20 04:00:57;;;;;;;1999.90;999.90;;;;;;;10.65;54.52;100586.66;5062463;27;98579;-70
2021/10/20 04:03:25;;;;;;;1999.90;999.90;;;;;;;10.63;54.16;100591.94;5069554;27;97855;-71
2021/10/20 04:05:53;;;;;;;1999.90;999.90;;;;;;;10.66;54.31;100583.13;5061500;27;97717;-71
2021/10/20 04:08:21;;;;;;;1999.90;999.90;;;;;;;10.56;54.45;100581.16;5063664;27;97849;-73
2021/10/20 04:10:50;;;;;;;1999.90;999.90;;;;;;;10.53;54.35;100590.00;5064428;27;98118;-71
2021/10/20 04:13:17;;;;;;;1999.90;999.90;;;;;;;10.52;54.58;100576.69;5062064;27;96931;-71
2021/10/20 04:15:47;;;;;;;1999.90;999.90;;;;;;;10.51;54.25;100573.09;5066061;27;98971;-71
2021/10/20 04:18:14;;;;;;;1999.90;999.90;;;;;;;10.47;54.42;100581.00;5061561;27;98983;-71
2021/10/20 04:20:42;;;;;;;1999.90;999.90;;;;;;;10.44;54.48;100591.59;5064275;27;97264;-72
2021/10/20 04:23:10;;;;;;;1999.90;999.90;;;;;;;10.39;54.49;100578.19;5045462;27;96850;-71
2021/10/20 04:25:38;;;;;;;1999.90;999.90;;;;;;;10.37;54.60;100576.34;5061397;27;100913;-70
2021/10/20 04:28:05;;;;;;;1999.90;999.90;;;;;;;10.37;54.55;100576.34;5066741;27;99397;-70
2021/10/20 04:30:33;;;;;;;1999.90;999.90;;;;;;;10.35;54.35;100575.41;5049122;27;96823;-70
2021/10/20 04:33:02;;;;;;;1999.90;999.90;;;;;;;10.30;54.44;100567.38;5062562;27;97097;-71
2021/10/20 04:35:30;;;;;;;1999.90;999.90;;;;;;;10.27;54.56;100567.28;5059150;27;98829;-70
2021/10/20 04:37:58;;;;;;;1999.90;999.90;;;;;;;10.29;54.43;100569.97;5062601;27;101357;-72
2021/10/20 04:40:26;;;;;;;1999.90;999.90;;;;;;;10.25;54.52;100558.38;5055605;27;98082;-73
2021/10/20 04:42:53;;;;;;;1999.90;999.90;;;;;;;10.20;54.51;100560.06;5056375;27;96986;-74
2021/10/20 04:45:21;;;;;;;1999.90;999.90;;;;;;;10.17;54.63;100539.63;5061616;27;98904;-74
2021/10/20 04:47:49;;;;;;;1999.90;999.90;;;;;;;10.16;54.46;100540.50;5054617;27;99477;-74
2021/10/20 04:50:19;;;;;;;1999.90;999.90;;;;;;;10.14;54.44;100541.34;5055276;27;97393;-75
2021/10/20 04:52:46;;;;;;;1999.90;999.90;;;;;;;10.09;54.66;100538.59;5060713;27;98417;-72
2021/10/20 04:55:14;;;;;;;1999.90;999.90;;;;;;;10.06;54.54;100540.31;5059562;27;99657;-72
2021/10/20 04:57:42;;;;;;;1999.90;999.90;;;;;;;10.02;54.63;100528.72;5060884;27;99251;-73
2021/10/20 05:00:10;;;;;;;1999.90;999.90;;;;;;;10.02;54.84;100520.75;5065866;27;96939;-73
2021/10/20 05:02:38;;;;;;;1999.90;999.90;;;;;;;10.03;54.50;100514.56;5060733;27;99060;-72
2021/10/20 05:05:07;;;;;;;1999.90;999.90;;;;;;;10.03;54.37;100514.56;5066735;27;98832;-73
2021/10/20 05:07:47;;;;;;;1999.90;999.90;;;;;;;9.97;54.37;100503.78;5067557;27;97533;-74
2021/10/20 05:10:15;;;;;;;1999.90;999.90;;;;;;;9.96;54.53;100495.78;5063697;27;97351;-72
2021/10/20 05:12:42;;;;;;;1999.90;999.90;;;;;;;9.96;54.58;100499.34;5063092;27;98193;-73
2021/10/20 05:15:12;;;;;;;1999.90;999.90;;;;;;;9.94;54.53;100493.13;5063120;27;99460;-74
2021/10/20 05:17:40;;;;;;;1999.90;999.90;;;;;;;9.93;54.52;100494.00;5065310;27;97515;-72
2021/10/20 05:20:09;;;;;;;1999.90;999.90;;;;;;;9.95;54.34;100486.03;5065263;27;97165;-72
2021/10/20 05:22:38;;;;;;;1999.90;999.90;;;;;;;9.92;54.38;100499.25;5063631;27;96903;-72
2021/10/20 05:25:09;;;;;;;1999.90;999.90;;;;;;;9.90;54.43;100490.38;5062904;27;99310;-73
2021/10/20 05:27:37;;;;;;;1999.90;999.90;;;;;;;9.87;54.44;100485.91;5062261;27;98103;-71
2021/10/20 05:30:06;;;;;;;1999.90;999.90;;;;;;;9.87;54.39;100485.00;5043977;27;97488;-72
2021/10/20 05:32:34;;;;;;;1999.90;999.90;;;;;;;9.86;54.41;100483.22;5063861;27;97230;-72
2021/10/20 05:35:01;;;;;;;1999.90;999.90;;;;;;;9.86;54.39;100476.13;5059603;27;97607;-70
2021/10/20 05:37:29;;;;;;;1999.90;999.90;;;;;;;9.86;54.33;100476.13;5059241;27;100597;-73
2021/10/20 05:39:58;;;;;;;1999.90;999.90;;;;;;;9.85;54.39;100466.38;5060127;27;97420;-72
2021/10/20 05:42:30;;;;;;;1999.90;999.90;;;;;;;9.85;54.32;100461.06;5044002;27;97964;-72
2021/10/20 05:44:58;;;;;;;1999.90;999.90;;;;;;;9.85;54.31;100461.06;5063102;27;98745;-72
2021/10/20 05:47:25;;;;;;;1999.90;999.90;;;;;;;9.87;54.37;100455.75;5063341;27;99241;-70
2021/10/20 05:49:53;;;;;;;1999.90;999.90;;;;;;;9.87;54.26;100454.00;5062343;27;97364;-71
2021/10/20 05:52:21;;;;;;;1999.90;999.90;;;;;;;9.89;54.15;100451.38;5061914;27;97600;-72
2021/10/20 05:54:49;;;;;;;1999.90;999.90;;;;;;;9.87;54.20;100446.03;5064378;27;97242;-70
2021/10/20 05:57:16;;;;;;;1999.90;999.90;;;;;;;9.88;54.03;100455.78;5057053;27;98014;-72
2021/10/20 05:59:45;;;;;;;1999.90;999.90;;;;;;;9.88;54.08;100445.16;5044813;27;97657;-72
2021/10/20 06:02:14;;;;;;;1999.90;999.90;;;;;;;9.90;53.97;100448.72;5081042;27;96944;-69
2021/10/20 06:04:42;;;;;;;1999.90;999.90;;;;;;;9.93;54.03;100463.84;5062651;27;98969;-72
2021/10/20 06:07:10;;;;;;;1999.90;999.90;;;;;;;9.93;53.91;100459.44;5048230;27;100152;-72
2021/10/20 06:09:38;;;;;;;1999.90;999.90;;;;;;;9.92;53.87;100456.72;5060375;27;98065;-72
2021/10/20 06:12:06;;;;;;;1999.90;999.90;;;;;;;9.93;53.96;100453.22;5064970;27;97250;-72
2021/10/20 06:14:34;;;;;;;1999.90;999.90;;;;;;;9.92;53.86;100473.59;5062781;27;99251;-72
2021/10/20 06:17:03;;;;;;;1999.90;999.90;;;;;;;9.92;53.90;100468.25;5060704;27;99381;-71
2021/10/20 06:19:31;;;;;;;1999.90;999.90;;;;;;;9.93;53.94;100464.75;5063406;27;96851;-72
2021/10/20 06:21:59;;;;;;;1999.90;999.90;;;;;;;9.94;53.83;100469.19;5063448;27;98056;-71
2021/10/20 06:24:27;;;;;;;1999.90;999.90;;;;;;;9.96;53.63;100470.13;5062262;27;101096;-70
2021/10/20 06:26:55;;;;;;;1999.90;999.90;;;;;;;9.95;53.82;100460.38;5062626;27;97692;-72
2021/10/20 06:29:26;;;;;;;1999.90;999.90;;;;;;;9.92;53.79;100462.94;5064002;27;97190;-73
2021/10/20 06:31:54;;;;;;;1999.90;999.90;;;;;;;9.92;53.69;100448.75;5048396;27;97253;-74
2021/10/20 06:34:23;;;;;;;1999.90;999.90;;;;;;;9.95;53.60;100436.44;5062044;27;99336;-73
2021/10/20 06:36:51;;;;;;;1999.90;999.90;;;;;;;9.96;53.58;100437.31;5061888;27;98321;-73
2021/10/20 06:39:21;;;;;;;1999.90;999.90;;;;;;;9.98;53.66;100430.28;5057903;27;98842;-75
2021/10/20 06:41:49;;;;;;;1999.90;999.90;;;;;;;9.97;53.61;100423.19;5059952;27;98315;-76
2021/10/20 06:44:17;;;;;;;1999.90;999.90;;;;;;;9.97;53.89;100437.34;5058167;27;99694;-77
2021/10/20 06:46:45;;;;;;;1999.90;999.90;;;;;;;9.93;53.60;100440.84;5065040;27;96798;-77
2021/10/20 06:49:13;;;;;;;1999.90;999.90;;;;;;;9.95;53.44;100433.78;5076988;27;97173;-75
2021/10/20 06:51:42;;;;;;;1999.90;999.90;;;;;;;9.97;53.33;100436.47;5058247;27;97439;-71
2021/10/20 06:54:17;;;;;;;1999.90;999.90;;;;;;;9.98;53.47;100441.81;5042788;27;100039;-74
2021/10/20 06:56:45;;;;;;;1999.90;999.90;;;;;;;10.00;53.46;100442.72;5060865;27;98766;-74
2021/10/20 06:59:12;;;;;;;1999.90;999.90;;;;;;;10.02;53.15;100433.03;5059727;27;96803;-72
2021/10/20 07:01:40;;;;;;;1999.90;999.90;;;;;;;10.05;53.12;100443.72;5060800;27;97625;-73
2021/10/20 07:04:08;;;;;;;1999.90;999.90;;;;;;;10.05;53.00;100440.16;5062300;27;97222;-74
2021/10/20 07:06:37;;;;;;;1999.90;999.90;;;;;;;10.05;52.74;100430.41;5063779;27;98094;-74
2021/10/20 07:09:06;;;;;;;1999.90;999.90;;;;;;;10.09;53.04;100431.34;5061068;27;96851;-73
2021/10/20 07:11:35;;;;;;;1999.90;999.90;;;;;;;10.13;52.69;100446.50;5061831;27;96908;-73
2021/10/20 07:14:03;;;;;;;1999.90;999.90;;;;;;;10.14;52.73;100443.88;5062558;27;98851;-72
2021/10/20 07:16:38;;;;;;;1999.90;999.90;;;;;;;10.18;52.52;100432.41;5060153;27;97696;-73
2021/10/20 07:19:07;;;;;;;1999.90;999.90;;;;;;;10.20;52.57;100430.69;5061377;27;97139;-74
2021/10/20 07:21:35;;;;;;;1999.90;999.90;;;;;;;10.26;52.54;100432.56;5060728;27;97063;-71
2021/10/20 07:24:04;;;;;;;1999.90;999.90;;;;;;;10.28;52.41;100422.84;5063819;27;98170;-71
2021/10/20 07:26:33;;;;;;;1999.90;999.90;;;;;;;10.32;52.34;100419.34;5062223;27;97701;-70
2021/10/20 07:29:01;;;;;;;1999.90;999.90;;;;;;;10.32;52.24;100415.81;5060650;27;97431;-70
2021/10/20 07:31:30;;;;;;;1999.90;999.90;;;;;;;10.38;52.32;100419.44;5063662;27;97731;-70
2021/10/20 07:33:58;;;;;;;1999.90;999.90;;;;;;;10.40;52.13;100414.16;5061503;27;99019;-70
2021/10/20 07:36:27;;;;;;;1999.90;999.90;;;;;;;10.42;52.05;100420.41;5060362;27;99128;-71
2021/10/20 07:38:55;;;;;;;1999.90;999.90;;;;;;;10.47;52.01;100414.31;5059942;27;97380;-69
2021/10/20 07:41:23;;;;;;;1999.90;999.90;;;;;;;10.51;52.03;100397.53;5068187;27;97308;-70
2021/10/20 07:43:52;;;;;;;1999.90;999.90;;;;;;;10.56;51.90;100387.84;5047230;27;96871;-71
2021/10/20 07:46:20;;;;;;;1999.90;999.90;;;;;;;10.60;52.02;100394.09;5066320;27;97531;-72
2021/10/20 07:48:48;;;;;;;1999.90;999.90;;;;;;;10.63;51.91;100391.50;5045551;27;97395;-71
2021/10/20 07:51:16;;;;;;;1999.90;999.90;;;;;;;10.67;51.58;100401.28;5064652;27;96918;-71
2021/10/20 07:53:44;;;;;;;1999.90;999.90;;;;;;;10.75;51.44;100403.22;5060897;27;99482;-72
2021/10/20 07:56:12;;;;;;;1999.90;999.90;;;;;;;10.75;51.59;100397.00;5047386;27;99616;-72
2021/10/20 07:58:40;;;;;;;1999.90;999.90;;;;;;;10.80;51.26;100395.28;5063230;27;97330;-72
2021/10/20 08:01:11;;;;;;;1999.90;999.90;;;;;;;10.83;50.72;100400.66;5064472;27;97291;-71
2021/10/20 08:03:39;;;;;;;1999.90;999.90;;;;;;;10.88;50.97;100401.63;5045569;27;99515;-72
2021/10/20 08:06:07;;;;;;;1999.90;999.90;;;;;;;10.91;50.76;100389.25;5065935;27;98355;-72
2021/10/20 08:08:35;;;;;;;1999.90;999.90;;;;;;;10.97;50.74;100376.03;5067218;27;98116;-71
2021/10/20 08:11:02;;;;;;;1999.90;999.90;;;;;;;10.97;50.77;100368.03;5049503;27;97485;-71
2021/10/20 08:13:30;;;;;;;1999.90;999.90;;;;;;;11.04;50.59;100356.59;5065467;27;97028;-70
2021/10/20 08:15:58;;;;;;;1999.90;999.90;;;;;;;11.11;50.54;100365.53;5060985;27;100686;-71
2021/10/20 08:18:27;;;;;;;1999.90;999.90;;;;;;;11.12;50.48;100357.53;5062756;27;98208;-72
2021/10/20 08:20:55;;;;;;;1999.90;999.90;;;;;;;11.17;50.41;100352.28;5060628;27;96807;-71
2021/10/20 08:23:23;;;;;;;1999.90;999.90;;;;;;;11.20;50.14;100341.66;5063060;27;101022;-72
2021/10/20 08:25:51;;;;;;;1999.90;999.90;;;;;;;11.23;50.29;100342.59;5047052;27;100462;-72
2021/10/20 08:28:18;;;;;;;1999.90;999.90;;;;;;;11.26;50.19;100349.72;5047546;27;97228;-73
2021/10/20 08:30:46;;;;;;;1999.90;999.90;;;;;;;11.30;50.29;100332.91;5062151;27;97287;-72
2021/10/20 08:33:16;;;;;;;1999.90;999.90;;;;;;;11.31;50.00;100329.41;5065012;27;100247;-72
2021/10/20 08:35:45;;;;;;;1999.90;999.90;;;;;;;11.33;50.02;100334.75;5061421;27;98636;-72
2021/10/20 08:38:13;;;;;;;1999.90;999.90;;;;;;;11.38;49.97;100331.25;5046547;27;97887;-72
2021/10/20 08:40:45;;;;;;;1999.90;999.90;;;;;;;11.41;50.07;100322.41;5063752;27;97204;-72
2021/10/20 08:43:14;;;;;;;1999.90;999.90;;;;;;;11.43;50.01;100321.56;5061936;27;97894;-71
2021/10/20 08:45:42;;;;;;;1999.90;999.90;;;;;;;11.44;49.89;100320.66;5060328;27;101112;-71
2021/10/20 08:48:11;;;;;;;1999.90;999.90;;;;;;;11.46;49.76;100318.91;5063685;27;97148;-71
2021/10/20 08:50:38;;;;;;;1999.90;999.90;;;;;;;11.51;49.88;100300.28;5063942;27;97132;-72
2021/10/20 08:53:08;;;;;;;1999.90;999.90;;;;;;;11.57;49.79;100292.38;5057900;27;98843;-71
2021/10/20 08:55:36;;;;;;;1999.90;999.90;;;;;;;11.60;49.76;100290.63;5065594;27;97454;-71
2021/10/20 08:58:04;;;;;;;1999.90;999.90;;;;;;;11.63;49.59;100280.00;5063650;27;98130;-73
2021/10/20 09:00:31;;;;;;;1999.90;999.90;;;;;;;11.66;49.67;100289.78;5065357;27;97200;-72
2021/10/20 09:02:59;;;;;;;1999.90;999.90;;;;;;;11.69;49.70;100285.38;5045738;27;100734;-72
2021/10/20 09:05:28;;;;;;;1999.90;999.90;;;;;;;11.70;49.61;100272.94;5062689;27;100409;-73
2021/10/20 09:07:57;;;;;;;1999.90;999.90;;;;;;;11.72;49.56;100282.75;5066878;27;98028;-73
2021/10/20 09:10:28;;;;;;;1999.90;999.90;;;;;;;11.73;49.63;100278.28;5046775;27;97314;-72
2021/10/20 09:12:58;;;;;;;1999.90;999.90;;;;;;;11.72;49.21;100285.41;5050077;27;99477;-73
2021/10/20 09:15:28;;;;;;;1999.90;999.90;;;;;;;11.76;49.52;100289.00;5059821;27;99644;-73
2021/10/20 09:17:58;;;;;;;1999.90;999.90;;;;;;;11.77;49.57;100281.00;5064401;27;97405;-74
2021/10/20 09:20:28;;;;;;;1999.90;999.90;;;;;;;11.81;49.33;100265.94;5046728;27;97385;-73
2021/10/20 09:23:05;;;;;;;1999.90;999.90;;;;;;;11.83;49.06;100264.16;5062403;27;99525;-74
2021/10/20 09:25:38;;;;;;;1999.90;999.90;;;;;;;11.85;49.31;100252.63;5064890;27;97669;-73
2021/10/20 09:28:07;;;;;;;1999.90;999.90;;;;;;;11.90;49.30;100260.66;5063284;27;97357;-74
2021/10/20 09:30:35;;;;;;;1999.90;999.90;;;;;;;11.92;49.26;100250.91;5061667;27;97169;-73
2021/10/20 09:33:02;;;;;;;1999.90;999.90;;;;;;;11.93;49.39;100258.91;5043429;27;99489;-73
2021/10/20 09:35:32;;;;;;;1999.90;999.90;;;;;;;11.95;49.31;100248.25;5062033;27;99972;-74
2021/10/20 09:38:00;;;;;;;1999.90;999.90;;;;;;;11.97;49.38;100244.72;5061283;27;96884;-72
2021/10/20 09:40:37;;;;;;;1999.90;999.90;;;;;;;11.97;49.10;100236.72;5060369;27;97454;-74
2021/10/20 09:43:06;;;;;;;1999.90;999.90;;;;;;;11.98;49.41;100229.63;5065425;27;98771;-74
2021/10/20 09:45:37;;;;;;;1999.90;999.90;;;;;;;11.96;49.17;100224.25;5066034;27;98737;-73
2021/10/20 09:48:13;;;;;;;1999.90;999.90;;;;;;;11.90;48.18;100218.91;5063805;27;97587;-72
2021/10/20 09:50:54;;;;;;;1999.90;999.90;;;;;;;11.94;48.80;100219.81;5064349;27;97348;-74
2021/10/20 09:53:22;;;;;;;1999.90;999.90;;;;;;;11.92;49.23;100242.91;5062424;27;98950;-74
2021/10/20 09:55:51;;;;;;;1999.90;999.90;;;;;;;11.90;49.15;100242.00;5066204;27;97874;-74
2021/10/20 09:58:19;;;;;;;1999.90;999.90;;;;;;;11.84;49.18;100210.84;5062928;27;97231;-74
2021/10/20 10:00:47;;;;;;;1999.90;999.90;;;;;;;11.85;49.42;100193.97;5064006;27;96904;-74
2021/10/20 10:03:15;;;;;;;1999.90;999.90;;;;;;;11.80;49.37;100198.38;5065014;27;97807;-74
2021/10/20 10:05:43;;;;;;;1999.90;999.90;;;;;;;11.84;49.43;100185.97;5059340;27;99302;-74
2021/10/20 10:08:10;;;;;;;1999.90;999.90;;;;;;;11.83;49.37;100174.44;5063855;27;97233;-74
2021/10/20 10:10:39;;;;;;;1999.90;999.90;;;;;;;11.86;49.41;100157.53;5063625;27;96786;-74
2021/10/20 10:13:11;;;;;;;1999.90;999.90;;;;;;;11.88;49.25;100147.78;5063386;27;97637;-74
2021/10/20 10:15:40;;;;;;;1999.90;999.90;;;;;;;11.92;49.17;100136.25;5063351;27;99239;-74
2021/10/20 10:18:09;;;;;;;1999.90;999.90;;;;;;;11.93;49.11;100128.25;5061483;27;96724;-74
2021/10/20 10:20:41;;;;;;;1999.90;999.90;;;;;;;11.90;49.05;100130.94;5063781;27;96991;-74
2021/10/20 10:23:19;;;;;;;1999.90;999.90;;;;;;;11.89;48.78;100129.13;5062485;27;99222;-74
2021/10/20 10:25:57;;;;;;;1999.90;999.90;;;;;;;11.92;48.96;100138.94;5061816;27;99204;-74
2021/10/20 10:28:28;;;;;;;1999.90;999.90;;;;;;;11.95;49.05;100146.94;5062466;27;97406;-75
2021/10/20 10:30:58;;;;;;;1999.90;999.90;;;;;;;12.00;49.16;100145.16;5058750;27;97988;-74
2021/10/20 10:33:28;;;;;;;1999.90;999.90;;;;;;;12.03;49.12;100127.44;5045133;27;101303;-74
2021/10/20 10:36:10;;;;;;;1999.90;999.90;;;;;;;12.07;48.94;100115.88;5041269;27;99884;-75
2021/10/20 10:38:40;;;;;;;1999.90;999.90;;;;;;;12.10;49.17;100121.25;5064409;27;97772;-74
2021/10/20 10:41:27;;;;;;;1999.90;999.90;;;;;;;12.13;48.82;100110.59;5061192;27;97331;-75
2021/10/20 10:44:17;;;;;;;1999.90;999.90;;;;;;;12.18;48.41;100083.97;5043561;27;99429;-74
2021/10/20 10:47:08;;;;;;;1999.90;999.90;;;;;;;12.22;48.80;100071.53;5062214;27;99556;-74
2021/10/20 10:49:38;;;;;;;1999.90;999.90;;;;;;;12.23;48.87;100083.97;5062900;27;97979;-74
2021/10/20 10:52:34;;;;;;;1999.90;999.90;;;;;;;12.25;48.46;100071.53;5061719;27;96988;-76
2021/10/20 10:55:09;;;;;;;1999.90;999.90;;;;;;;12.28;48.81;100082.22;5003045;27;100316;-74